sensor_id;sensor_type;location;lat;lon;timestamp;P1;durP1;ratioP1;P2;durP2;ratioP2
14052;SDS011;7101;51.600;7.310;2022-10-26T00:01:39;7.50;;;3.90;;
14052;SDS011;7101;51.600;7.310;2022-10-26T00:04:07;10.10;;;4.55;;
14052;SDS011;7101;51.600;7.310;2022-10-26T00:06:40;11.35;;;4.57;;
14052;SDS011;7101;51.600;7.310;2022-10-26T00:09:07;8.35;;;4.53;;
14052;SDS011;7101;51.600;7.310;2022-10-26T00:11:34;8.15;;;3.88;;
14052;SDS011;7101;51.600;7.310;2022-10-26T00:14:01;10.57;;;4.18;;
14052;SDS011;7101;51.600;7.310;2022-10-26T00:16:29;10.68;;;4.88;;
14052;SDS011;7101;51.600;7.310;2022-10-26T00:18:56;8.77;;;3.90;;
14052;SDS011;7101;51.600;7.310;2022-10-26T00:21:22;13.57;;;4.25;;
14052;SDS011;7101;51.600;7.310;2022-10-26T00:23:49;7.95;;;4.00;;
14052;SDS011;7101;51.600;7.310;2022-10-26T00:26:16;13.00;;;4.82;;
14052;SDS011;7101;51.600;7.310;2022-10-26T00:28:43;10.07;;;4.25;;
14052;SDS011;7101;51.600;7.310;2022-10-26T00:31:11;8.05;;;4.28;;
14052;SDS011;7101;51.600;7.310;2022-10-26T00:33:41;8.23;;;3.97;;
14052;SDS011;7101;51.600;7.310;2022-10-26T00:36:09;12.52;;;4.95;;
14052;SDS011;7101;51.600;7.310;2022-10-26T00:38:37;10.25;;;3.90;;
14052;SDS011;7101;51.600;7.310;2022-10-26T00:41:12;13.85;;;4.45;;
14052;SDS011;7101;51.600;7.310;2022-10-26T00:43:40;8.30;;;4.03;;
14052;SDS011;7101;51.600;7.310;2022-10-26T00:46:08;7.93;;;4.32;;
14052;SDS011;7101;51.600;7.310;2022-10-26T00:48:40;12.65;;;4.40;;
14052;SDS011;7101;51.600;7.310;2022-10-26T00:51:12;7.78;;;4.30;;
14052;SDS011;7101;51.600;7.310;2022-10-26T00:53:44;8.52;;;4.45;;
14052;SDS011;7101;51.600;7.310;2022-10-26T00:56:11;9.38;;;4.72;;
14052;SDS011;7101;51.600;7.310;2022-10-26T00:58:38;7.93;;;4.60;;
14052;SDS011;7101;51.600;7.310;2022-10-26T01:01:05;8.55;;;4.28;;
14052;SDS011;7101;51.600;7.310;2022-10-26T01:03:32;9.15;;;3.90;;
14052;SDS011;7101;51.600;7.310;2022-10-26T01:06:02;10.95;;;5.10;;
14052;SDS011;7101;51.600;7.310;2022-10-26T01:08:30;7.68;;;4.28;;
14052;SDS011;7101;51.600;7.310;2022-10-26T01:10:57;8.00;;;4.55;;
14052;SDS011;7101;51.600;7.310;2022-10-26T01:13:25;10.55;;;4.43;;
14052;SDS011;7101;51.600;7.310;2022-10-26T01:15:58;12.77;;;4.78;;
14052;SDS011;7101;51.600;7.310;2022-10-26T01:18:37;9.73;;;4.50;;
14052;SDS011;7101;51.600;7.310;2022-10-26T01:21:17;11.55;;;4.15;;
14052;SDS011;7101;51.600;7.310;2022-10-26T01:24:07;9.43;;;5.03;;
14052;SDS011;7101;51.600;7.310;2022-10-26T01:26:51;8.10;;;4.57;;
14052;SDS011;7101;51.600;7.310;2022-10-26T01:29:49;9.73;;;4.57;;
14052;SDS011;7101;51.600;7.310;2022-10-26T01:32:29;8.43;;;4.30;;
14052;SDS011;7101;51.600;7.310;2022-10-26T01:35:02;12.10;;;4.72;;
14052;SDS011;7101;51.600;7.310;2022-10-26T01:37:34;8.52;;;4.53;;
14052;SDS011;7101;51.600;7.310;2022-10-26T01:40:05;9.68;;;4.30;;
14052;SDS011;7101;51.600;7.310;2022-10-26T01:42:38;6.85;;;3.80;;
14052;SDS011;7101;51.600;7.310;2022-10-26T01:45:08;8.10;;;4.32;;
14052;SDS011;7101;51.600;7.310;2022-10-26T01:47:40;7.85;;;4.22;;
14052;SDS011;7101;51.600;7.310;2022-10-26T01:50:09;10.18;;;4.30;;
14052;SDS011;7101;51.600;7.310;2022-10-26T01:52:37;10.93;;;4.45;;
14052;SDS011;7101;51.600;7.310;2022-10-26T01:55:06;15.70;;;4.45;;
14052;SDS011;7101;51.600;7.310;2022-10-26T01:57:49;10.57;;;4.38;;
14052;SDS011;7101;51.600;7.310;2022-10-26T02:00:18;6.60;;;4.13;;
14052;SDS011;7101;51.600;7.310;2022-10-26T02:02:53;6.55;;;3.95;;
14052;SDS011;7101;51.600;7.310;2022-10-26T02:05:35;11.55;;;3.85;;
14052;SDS011;7101;51.600;7.310;2022-10-26T02:08:25;8.82;;;4.28;;
14052;SDS011;7101;51.600;7.310;2022-10-26T02:11:02;8.77;;;3.90;;
14052;SDS011;7101;51.600;7.310;2022-10-26T02:13:39;12.32;;;3.67;;
14052;SDS011;7101;51.600;7.310;2022-10-26T02:16:12;6.00;;;3.22;;
14052;SDS011;7101;51.600;7.310;2022-10-26T02:18:49;11.02;;;4.10;;
14052;SDS011;7101;51.600;7.310;2022-10-26T02:21:20;7.80;;;3.22;;
14052;SDS011;7101;51.600;7.310;2022-10-26T02:23:50;9.13;;;4.00;;
14052;SDS011;7101;51.600;7.310;2022-10-26T02:26:21;7.28;;;3.80;;
14052;SDS011;7101;51.600;7.310;2022-10-26T02:28:50;8.00;;;3.38;;
14052;SDS011;7101;51.600;7.310;2022-10-26T02:31:22;9.93;;;4.28;;
14052;SDS011;7101;51.600;7.310;2022-10-26T02:33:53;8.18;;;3.55;;
14052;SDS011;7101;51.600;7.310;2022-10-26T02:36:22;4.65;;;3.25;;
14052;SDS011;7101;51.600;7.310;2022-10-26T02:38:53;9.20;;;3.72;;
14052;SDS011;7101;51.600;7.310;2022-10-26T02:41:22;6.78;;;3.28;;
14052;SDS011;7101;51.600;7.310;2022-10-26T02:43:52;11.23;;;3.88;;
14052;SDS011;7101;51.600;7.310;2022-10-26T02:46:25;9.27;;;4.05;;
14052;SDS011;7101;51.600;7.310;2022-10-26T02:48:55;8.07;;;3.30;;
14052;SDS011;7101;51.600;7.310;2022-10-26T02:51:24;7.25;;;3.60;;
14052;SDS011;7101;51.600;7.310;2022-10-26T02:54:00;6.50;;;3.35;;
14052;SDS011;7101;51.600;7.310;2022-10-26T02:56:33;7.68;;;3.80;;
14052;SDS011;7101;51.600;7.310;2022-10-26T02:59:07;7.50;;;3.35;;
14052;SDS011;7101;51.600;7.310;2022-10-26T03:01:36;9.07;;;3.70;;
14052;SDS011;7101;51.600;7.310;2022-10-26T03:04:04;6.65;;;3.30;;
14052;SDS011;7101;51.600;7.310;2022-10-26T03:06:33;5.53;;;3.90;;
14052;SDS011;7101;51.600;7.310;2022-10-26T03:09:02;9.30;;;3.60;;
14052;SDS011;7101;51.600;7.310;2022-10-26T03:11:30;11.63;;;3.83;;
14052;SDS011;7101;51.600;7.310;2022-10-26T03:13:58;12.45;;;3.58;;
14052;SDS011;7101;51.600;7.310;2022-10-26T03:16:25;5.63;;;3.60;;
14052;SDS011;7101;51.600;7.310;2022-10-26T03:18:52;12.90;;;4.15;;
14052;SDS011;7101;51.600;7.310;2022-10-26T03:21:20;6.13;;;3.75;;
14052;SDS011;7101;51.600;7.310;2022-10-26T03:23:47;8.20;;;4.13;;
14052;SDS011;7101;51.600;7.310;2022-10-26T03:26:15;6.07;;;3.78;;
14052;SDS011;7101;51.600;7.310;2022-10-26T03:28:42;9.40;;;3.75;;
14052;SDS011;7101;51.600;7.310;2022-10-26T03:31:09;8.02;;;3.90;;
14052;SDS011;7101;51.600;7.310;2022-10-26T03:33:36;8.02;;;3.97;;
14052;SDS011;7101;51.600;7.310;2022-10-26T03:36:03;6.05;;;3.70;;
14052;SDS011;7101;51.600;7.310;2022-10-26T03:38:32;8.60;;;4.07;;
14052;SDS011;7101;51.600;7.310;2022-10-26T03:40:58;6.28;;;3.40;;
14052;SDS011;7101;51.600;7.310;2022-10-26T03:43:27;5.57;;;3.50;;
14052;SDS011;7101;51.600;7.310;2022-10-26T03:45:54;8.05;;;3.80;;
14052;SDS011;7101;51.600;7.310;2022-10-26T03:48:21;8.48;;;3.88;;
14052;SDS011;7101;51.600;7.310;2022-10-26T03:50:48;6.18;;;3.50;;
14052;SDS011;7101;51.600;7.310;2022-10-26T03:53:15;9.20;;;3.40;;
14052;SDS011;7101;51.600;7.310;2022-10-26T03:55:45;6.30;;;3.17;;
14052;SDS011;7101;51.600;7.310;2022-10-26T03:58:13;13.82;;;3.60;;
14052;SDS011;7101;51.600;7.310;2022-10-26T04:00:40;8.70;;;3.60;;
14052;SDS011;7101;51.600;7.310;2022-10-26T04:03:07;5.13;;;2.97;;
14052;SDS011;7101;51.600;7.310;2022-10-26T04:05:34;6.63;;;3.20;;
14052;SDS011;7101;51.600;7.310;2022-10-26T04:08:00;6.70;;;3.67;;
14052;SDS011;7101;51.600;7.310;2022-10-26T04:10:29;6.00;;;3.28;;
14052;SDS011;7101;51.600;7.310;2022-10-26T04:12:58;6.85;;;3.53;;
14052;SDS011;7101;51.600;7.310;2022-10-26T04:15:25;7.03;;;3.25;;
14052;SDS011;7101;51.600;7.310;2022-10-26T04:17:56;6.07;;;3.10;;
14052;SDS011;7101;51.600;7.310;2022-10-26T04:20:25;6.75;;;3.10;;
14052;SDS011;7101;51.600;7.310;2022-10-26T04:22:56;5.10;;;3.20;;
14052;SDS011;7101;51.600;7.310;2022-10-26T04:25:24;7.47;;;3.50;;
14052;SDS011;7101;51.600;7.310;2022-10-26T04:27:51;7.50;;;3.55;;
14052;SDS011;7101;51.600;7.310;2022-10-26T04:30:19;6.63;;;3.13;;
14052;SDS011;7101;51.600;7.310;2022-10-26T04:32:46;5.32;;;3.60;;
14052;SDS011;7101;51.600;7.310;2022-10-26T04:35:13;6.57;;;3.25;;
14052;SDS011;7101;51.600;7.310;2022-10-26T04:37:40;9.80;;;3.33;;
14052;SDS011;7101;51.600;7.310;2022-10-26T04:40:07;8.10;;;4.05;;
14052;SDS011;7101;51.600;7.310;2022-10-26T04:42:42;8.35;;;3.65;;
14052;SDS011;7101;51.600;7.310;2022-10-26T04:45:10;6.15;;;3.80;;
14052;SDS011;7101;51.600;7.310;2022-10-26T04:47:40;4.53;;;3.45;;
14052;SDS011;7101;51.600;7.310;2022-10-26T04:50:08;6.13;;;3.75;;
14052;SDS011;7101;51.600;7.310;2022-10-26T04:52:35;10.30;;;3.75;;
14052;SDS011;7101;51.600;7.310;2022-10-26T04:55:04;8.32;;;3.80;;
14052;SDS011;7101;51.600;7.310;2022-10-26T04:57:32;11.55;;;3.92;;
14052;SDS011;7101;51.600;7.310;2022-10-26T05:00:00;11.48;;;4.30;;
14052;SDS011;7101;51.600;7.310;2022-10-26T05:02:27;8.05;;;4.30;;
14052;SDS011;7101;51.600;7.310;2022-10-26T05:04:56;8.18;;;4.20;;
14052;SDS011;7101;51.600;7.310;2022-10-26T05:07:22;12.85;;;4.32;;
14052;SDS011;7101;51.600;7.310;2022-10-26T05:09:49;6.00;;;4.07;;
14052;SDS011;7101;51.600;7.310;2022-10-26T05:12:16;10.50;;;4.07;;
14052;SDS011;7101;51.600;7.310;2022-10-26T05:14:43;9.07;;;4.25;;
14052;SDS011;7101;51.600;7.310;2022-10-26T05:17:10;6.38;;;4.00;;
14052;SDS011;7101;51.600;7.310;2022-10-26T05:19:37;11.40;;;3.88;;
14052;SDS011;7101;51.600;7.310;2022-10-26T05:22:05;12.30;;;4.15;;
14052;SDS011;7101;51.600;7.310;2022-10-26T05:24:32;11.05;;;3.75;;
14052;SDS011;7101;51.600;7.310;2022-10-26T05:26:59;11.23;;;3.78;;
14052;SDS011;7101;51.600;7.310;2022-10-26T05:29:26;10.40;;;3.70;;
14052;SDS011;7101;51.600;7.310;2022-10-26T05:31:53;9.50;;;4.20;;
14052;SDS011;7101;51.600;7.310;2022-10-26T05:34:20;6.15;;;4.32;;
14052;SDS011;7101;51.600;7.310;2022-10-26T05:36:46;7.35;;;4.38;;
14052;SDS011;7101;51.600;7.310;2022-10-26T05:39:15;11.13;;;3.63;;
14052;SDS011;7101;51.600;7.310;2022-10-26T05:41:41;7.80;;;3.50;;
14052;SDS011;7101;51.600;7.310;2022-10-26T05:44:08;10.43;;;4.25;;
14052;SDS011;7101;51.600;7.310;2022-10-26T05:46:35;5.00;;;3.58;;
14052;SDS011;7101;51.600;7.310;2022-10-26T05:49:02;5.65;;;3.50;;
14052;SDS011;7101;51.600;7.310;2022-10-26T05:51:29;6.43;;;3.42;;
14052;SDS011;7101;51.600;7.310;2022-10-26T05:53:58;9.63;;;3.78;;
14052;SDS011;7101;51.600;7.310;2022-10-26T05:56:32;10.70;;;4.05;;
14052;SDS011;7101;51.600;7.310;2022-10-26T05:59:01;8.27;;;3.58;;
14052;SDS011;7101;51.600;7.310;2022-10-26T06:01:30;9.00;;;3.40;;
14052;SDS011;7101;51.600;7.310;2022-10-26T06:04:07;6.82;;;3.75;;
14052;SDS011;7101;51.600;7.310;2022-10-26T06:06:44;6.97;;;3.63;;
14052;SDS011;7101;51.600;7.310;2022-10-26T06:09:12;11.27;;;3.20;;
14052;SDS011;7101;51.600;7.310;2022-10-26T06:11:41;8.73;;;4.18;;
14052;SDS011;7101;51.600;7.310;2022-10-26T06:14:09;8.65;;;3.65;;
14052;SDS011;7101;51.600;7.310;2022-10-26T06:16:39;10.10;;;4.00;;
14052;SDS011;7101;51.600;7.310;2022-10-26T06:19:19;13.95;;;4.20;;
14052;SDS011;7101;51.600;7.310;2022-10-26T06:21:56;12.95;;;4.55;;
14052;SDS011;7101;51.600;7.310;2022-10-26T06:24:34;11.55;;;4.47;;
14052;SDS011;7101;51.600;7.310;2022-10-26T06:27:10;9.98;;;4.13;;
14052;SDS011;7101;51.600;7.310;2022-10-26T06:29:44;8.15;;;3.70;;
14052;SDS011;7101;51.600;7.310;2022-10-26T06:32:21;10.45;;;3.65;;
14052;SDS011;7101;51.600;7.310;2022-10-26T06:34:48;6.90;;;3.28;;
14052;SDS011;7101;51.600;7.310;2022-10-26T06:37:18;5.93;;;3.60;;
14052;SDS011;7101;51.600;7.310;2022-10-26T06:39:46;8.75;;;3.83;;
14052;SDS011;7101;51.600;7.310;2022-10-26T06:42:16;8.68;;;3.33;;
14052;SDS011;7101;51.600;7.310;2022-10-26T06:44:44;13.48;;;3.63;;
14052;SDS011;7101;51.600;7.310;2022-10-26T06:47:13;12.52;;;4.32;;
14052;SDS011;7101;51.600;7.310;2022-10-26T06:49:49;9.52;;;3.80;;
14052;SDS011;7101;51.600;7.310;2022-10-26T06:52:23;9.13;;;3.50;;
14052;SDS011;7101;51.600;7.310;2022-10-26T06:54:57;12.30;;;3.90;;
14052;SDS011;7101;51.600;7.310;2022-10-26T06:57:27;9.88;;;3.70;;
14052;SDS011;7101;51.600;7.310;2022-10-26T07:00:00;13.75;;;3.92;;
14052;SDS011;7101;51.600;7.310;2022-10-26T07:02:36;15.05;;;3.83;;
14052;SDS011;7101;51.600;7.310;2022-10-26T07:05:04;12.70;;;3.83;;
14052;SDS011;7101;51.600;7.310;2022-10-26T07:07:34;9.77;;;3.78;;
14052;SDS011;7101;51.600;7.310;2022-10-26T07:10:07;15.40;;;4.03;;
14052;SDS011;7101;51.600;7.310;2022-10-26T07:12:36;7.88;;;3.33;;
14052;SDS011;7101;51.600;7.310;2022-10-26T07:15:03;11.35;;;3.00;;
14052;SDS011;7101;51.600;7.310;2022-10-26T07:17:40;9.05;;;3.30;;
14052;SDS011;7101;51.600;7.310;2022-10-26T07:20:08;6.38;;;3.00;;
14052;SDS011;7101;51.600;7.310;2022-10-26T07:22:35;5.32;;;3.03;;
14052;SDS011;7101;51.600;7.310;2022-10-26T07:25:03;6.43;;;3.00;;
14052;SDS011;7101;51.600;7.310;2022-10-26T07:27:32;7.13;;;3.63;;
14052;SDS011;7101;51.600;7.310;2022-10-26T07:30:00;12.30;;;3.40;;
14052;SDS011;7101;51.600;7.310;2022-10-26T07:32:27;10.57;;;4.00;;
14052;SDS011;7101;51.600;7.310;2022-10-26T07:34:54;8.15;;;3.78;;
14052;SDS011;7101;51.600;7.310;2022-10-26T07:37:21;8.02;;;3.40;;
14052;SDS011;7101;51.600;7.310;2022-10-26T07:39:49;7.13;;;3.60;;
14052;SDS011;7101;51.600;7.310;2022-10-26T07:42:16;12.57;;;4.20;;
14052;SDS011;7101;51.600;7.310;2022-10-26T07:44:46;8.65;;;3.70;;
14052;SDS011;7101;51.600;7.310;2022-10-26T07:47:14;4.22;;;3.15;;
14052;SDS011;7101;51.600;7.310;2022-10-26T07:49:42;9.55;;;3.90;;
14052;SDS011;7101;51.600;7.310;2022-10-26T07:52:09;10.80;;;4.00;;
14052;SDS011;7101;51.600;7.310;2022-10-26T07:54:36;13.70;;;4.05;;
14052;SDS011;7101;51.600;7.310;2022-10-26T07:57:06;8.20;;;4.03;;
14052;SDS011;7101;51.600;7.310;2022-10-26T07:59:33;10.02;;;4.10;;
14052;SDS011;7101;51.600;7.310;2022-10-26T08:02:01;12.60;;;4.30;;
14052;SDS011;7101;51.600;7.310;2022-10-26T08:04:29;8.63;;;4.25;;
14052;SDS011;7101;51.600;7.310;2022-10-26T08:06:56;7.63;;;4.45;;
14052;SDS011;7101;51.600;7.310;2022-10-26T08:09:23;12.38;;;4.18;;
14052;SDS011;7101;51.600;7.310;2022-10-26T08:11:50;6.90;;;3.90;;
14052;SDS011;7101;51.600;7.310;2022-10-26T08:14:17;9.43;;;3.60;;
14052;SDS011;7101;51.600;7.310;2022-10-26T08:16:45;9.60;;;3.95;;
14052;SDS011;7101;51.600;7.310;2022-10-26T08:19:16;8.15;;;4.03;;
14052;SDS011;7101;51.600;7.310;2022-10-26T08:21:44;7.07;;;3.75;;
14052;SDS011;7101;51.600;7.310;2022-10-26T08:24:11;10.25;;;3.42;;
14052;SDS011;7101;51.600;7.310;2022-10-26T08:26:38;8.88;;;3.65;;
14052;SDS011;7101;51.600;7.310;2022-10-26T08:29:06;6.80;;;3.10;;
14052;SDS011;7101;51.600;7.310;2022-10-26T08:31:33;6.43;;;3.75;;
14052;SDS011;7101;51.600;7.310;2022-10-26T08:34:00;7.60;;;4.10;;
14052;SDS011;7101;51.600;7.310;2022-10-26T08:36:29;10.18;;;4.15;;
14052;SDS011;7101;51.600;7.310;2022-10-26T08:38:58;13.98;;;3.83;;
14052;SDS011;7101;51.600;7.310;2022-10-26T08:41:27;11.75;;;3.90;;
14052;SDS011;7101;51.600;7.310;2022-10-26T08:44:01;8.35;;;3.00;;
14052;SDS011;7101;51.600;7.310;2022-10-26T08:46:33;6.40;;;2.72;;
14052;SDS011;7101;51.600;7.310;2022-10-26T08:49:07;6.75;;;2.83;;
14052;SDS011;7101;51.600;7.310;2022-10-26T08:51:43;7.28;;;2.78;;
14052;SDS011;7101;51.600;7.310;2022-10-26T08:54:13;4.78;;;2.25;;
14052;SDS011;7101;51.600;7.310;2022-10-26T08:56:43;3.53;;;2.15;;
14052;SDS011;7101;51.600;7.310;2022-10-26T08:59:15;5.25;;;2.25;;
14052;SDS011;7101;51.600;7.310;2022-10-26T09:01:50;8.23;;;2.33;;
14052;SDS011;7101;51.600;7.310;2022-10-26T09:04:19;6.00;;;1.65;;
14052;SDS011;7101;51.600;7.310;2022-10-26T09:06:53;4.53;;;1.67;;
14052;SDS011;7101;51.600;7.310;2022-10-26T09:09:29;3.13;;;1.45;;
14052;SDS011;7101;51.600;7.310;2022-10-26T09:12:06;4.28;;;1.60;;
14052;SDS011;7101;51.600;7.310;2022-10-26T09:14:38;4.22;;;1.20;;
14052;SDS011;7101;51.600;7.310;2022-10-26T09:17:15;3.53;;;1.45;;
14052;SDS011;7101;51.600;7.310;2022-10-26T09:19:58;3.15;;;1.58;;
14052;SDS011;7101;51.600;7.310;2022-10-26T09:22:40;4.00;;;1.30;;
14052;SDS011;7101;51.600;7.310;2022-10-26T09:25:15;5.07;;;1.20;;
14052;SDS011;7101;51.600;7.310;2022-10-26T09:27:45;3.22;;;1.40;;
14052;SDS011;7101;51.600;7.310;2022-10-26T09:30:15;5.55;;;1.40;;
14052;SDS011;7101;51.600;7.310;2022-10-26T09:32:45;5.63;;;1.50;;
14052;SDS011;7101;51.600;7.310;2022-10-26T09:35:13;5.47;;;1.50;;
14052;SDS011;7101;51.600;7.310;2022-10-26T09:37:45;5.82;;;1.55;;
14052;SDS011;7101;51.600;7.310;2022-10-26T09:40:19;4.10;;;1.40;;
14052;SDS011;7101;51.600;7.310;2022-10-26T09:42:53;4.53;;;1.45;;
14052;SDS011;7101;51.600;7.310;2022-10-26T09:45:24;3.03;;;1.15;;
14052;SDS011;7101;51.600;7.310;2022-10-26T09:47:58;5.22;;;1.45;;
14052;SDS011;7101;51.600;7.310;2022-10-26T09:50:32;6.13;;;1.58;;
14052;SDS011;7101;51.600;7.310;2022-10-26T09:53:00;4.68;;;1.50;;
14052;SDS011;7101;51.600;7.310;2022-10-26T09:55:33;5.15;;;1.50;;
14052;SDS011;7101;51.600;7.310;2022-10-26T09:58:11;3.25;;;1.25;;
14052;SDS011;7101;51.600;7.310;2022-10-26T10:00:40;4.88;;;1.67;;
14052;SDS011;7101;51.600;7.310;2022-10-26T10:03:17;8.40;;;1.58;;
14052;SDS011;7101;51.600;7.310;2022-10-26T10:05:44;4.90;;;1.50;;
14052;SDS011;7101;51.600;7.310;2022-10-26T10:08:15;3.17;;;1.50;;
14052;SDS011;7101;51.600;7.310;2022-10-26T10:10:55;6.13;;;1.83;;
14052;SDS011;7101;51.600;7.310;2022-10-26T10:13:24;2.60;;;1.40;;
14052;SDS011;7101;51.600;7.310;2022-10-26T10:15:53;6.30;;;1.83;;
14052;SDS011;7101;51.600;7.310;2022-10-26T10:18:22;6.97;;;1.60;;
14052;SDS011;7101;51.600;7.310;2022-10-26T10:20:51;7.32;;;1.70;;
14052;SDS011;7101;51.600;7.310;2022-10-26T10:23:24;4.63;;;1.65;;
14052;SDS011;7101;51.600;7.310;2022-10-26T10:26:01;8.10;;;2.00;;
14052;SDS011;7101;51.600;7.310;2022-10-26T10:28:36;5.18;;;1.48;;
14052;SDS011;7101;51.600;7.310;2022-10-26T10:31:16;5.78;;;1.60;;
14052;SDS011;7101;51.600;7.310;2022-10-26T10:33:47;4.30;;;1.40;;
14052;SDS011;7101;51.600;7.310;2022-10-26T10:36:15;3.40;;;1.85;;
14052;SDS011;7101;51.600;7.310;2022-10-26T10:38:46;2.83;;;1.45;;
14052;SDS011;7101;51.600;7.310;2022-10-26T10:41:17;4.57;;;1.77;;
14052;SDS011;7101;51.600;7.310;2022-10-26T10:43:51;8.77;;;2.17;;
14052;SDS011;7101;51.600;7.310;2022-10-26T10:46:22;5.40;;;1.63;;
14052;SDS011;7101;51.600;7.310;2022-10-26T10:49:01;3.38;;;1.50;;
14052;SDS011;7101;51.600;7.310;2022-10-26T10:51:35;4.60;;;1.70;;
14052;SDS011;7101;51.600;7.310;2022-10-26T10:54:05;4.80;;;1.67;;
14052;SDS011;7101;51.600;7.310;2022-10-26T10:56:44;4.28;;;1.58;;
14052;SDS011;7101;51.600;7.310;2022-10-26T11:08:01;12.38;;;2.28;;
14052;SDS011;7101;51.600;7.310;2022-10-26T11:10:33;3.45;;;1.88;;
14052;SDS011;7101;51.600;7.310;2022-10-26T11:13:11;3.97;;;1.90;;
14052;SDS011;7101;51.600;7.310;2022-10-26T11:15:43;6.45;;;1.80;;
14052;SDS011;7101;51.600;7.310;2022-10-26T11:18:15;4.43;;;1.90;;
14052;SDS011;7101;51.600;7.310;2022-10-26T11:20:48;5.75;;;1.75;;
14052;SDS011;7101;51.600;7.310;2022-10-26T11:23:22;5.35;;;2.00;;
14052;SDS011;7101;51.600;7.310;2022-10-26T11:25:58;4.05;;;1.70;;
14052;SDS011;7101;51.600;7.310;2022-10-26T11:28:33;4.05;;;2.05;;
14052;SDS011;7101;51.600;7.310;2022-10-26T11:31:06;5.03;;;1.75;;
14052;SDS011;7101;51.600;7.310;2022-10-26T11:33:39;8.40;;;2.20;;
14052;SDS011;7101;51.600;7.310;2022-10-26T11:36:10;5.18;;;1.88;;
14052;SDS011;7101;51.600;7.310;2022-10-26T11:38:41;4.32;;;1.70;;
14052;SDS011;7101;51.600;7.310;2022-10-26T11:41:14;6.53;;;1.85;;
14052;SDS011;7101;51.600;7.310;2022-10-26T11:43:47;4.30;;;1.73;;
14052;SDS011;7101;51.600;7.310;2022-10-26T11:46:19;6.90;;;1.77;;
14052;SDS011;7101;51.600;7.310;2022-10-26T11:48:51;9.25;;;2.28;;
14052;SDS011;7101;51.600;7.310;2022-10-26T11:51:30;6.45;;;2.13;;
14052;SDS011;7101;51.600;7.310;2022-10-26T11:54:07;4.72;;;1.90;;
14052;SDS011;7101;51.600;7.310;2022-10-26T11:56:39;4.95;;;1.88;;
14052;SDS011;7101;51.600;7.310;2022-10-26T11:59:13;4.40;;;2.03;;
14052;SDS011;7101;51.600;7.310;2022-10-26T12:01:57;8.35;;;2.20;;
14052;SDS011;7101;51.600;7.310;2022-10-26T12:04:35;6.65;;;2.10;;
14052;SDS011;7101;51.600;7.310;2022-10-26T12:07:07;4.03;;;1.85;;
14052;SDS011;7101;51.600;7.310;2022-10-26T12:09:38;7.35;;;2.38;;
14052;SDS011;7101;51.600;7.310;2022-10-26T12:12:08;4.35;;;2.00;;
14052;SDS011;7101;51.600;7.310;2022-10-26T12:14:46;5.15;;;1.95;;
14052;SDS011;7101;51.600;7.310;2022-10-26T12:17:18;8.73;;;2.15;;
14052;SDS011;7101;51.600;7.310;2022-10-26T12:19:52;6.30;;;2.33;;
14052;SDS011;7101;51.600;7.310;2022-10-26T12:22:27;6.47;;;2.10;;
14052;SDS011;7101;51.600;7.310;2022-10-26T12:25:07;4.18;;;2.00;;
14052;SDS011;7101;51.600;7.310;2022-10-26T12:27:50;3.60;;;1.67;;
14052;SDS011;7101;51.600;7.310;2022-10-26T12:30:27;7.25;;;1.83;;
14052;SDS011;7101;51.600;7.310;2022-10-26T12:32:56;4.68;;;1.77;;
14052;SDS011;7101;51.600;7.310;2022-10-26T12:35:41;6.65;;;2.58;;
14052;SDS011;7101;51.600;7.310;2022-10-26T12:41:17;6.07;;;2.40;;
14052;SDS011;7101;51.600;7.310;2022-10-26T12:43:47;2.13;;;1.52;;
14052;SDS011;7101;51.600;7.310;2022-10-26T12:52:27;10.07;;;2.60;;
14052;SDS011;7101;51.600;7.310;2022-10-26T12:55:19;7.22;;;1.70;;
14052;SDS011;7101;51.600;7.310;2022-10-26T12:58:34;4.68;;;1.85;;
14052;SDS011;7101;51.600;7.310;2022-10-26T13:04:10;5.80;;;1.80;;
14052;SDS011;7101;51.600;7.310;2022-10-26T13:06:50;7.05;;;2.10;;
14052;SDS011;7101;51.600;7.310;2022-10-26T13:09:42;7.72;;;1.80;;
14052;SDS011;7101;51.600;7.310;2022-10-26T13:12:11;3.80;;;1.67;;
14052;SDS011;7101;51.600;7.310;2022-10-26T13:14:40;5.90;;;1.60;;
14052;SDS011;7101;51.600;7.310;2022-10-26T13:17:23;4.63;;;1.60;;
14052;SDS011;7101;51.600;7.310;2022-10-26T13:19:58;9.68;;;2.00;;
14052;SDS011;7101;51.600;7.310;2022-10-26T13:22:27;3.72;;;1.70;;
14052;SDS011;7101;51.600;7.310;2022-10-26T13:24:57;3.63;;;1.55;;
14052;SDS011;7101;51.600;7.310;2022-10-26T13:27:42;2.97;;;1.40;;
14052;SDS011;7101;51.600;7.310;2022-10-26T13:30:19;5.55;;;1.75;;
14052;SDS011;7101;51.600;7.310;2022-10-26T13:33:18;7.03;;;1.60;;
14052;SDS011;7101;51.600;7.310;2022-10-26T13:35:54;3.67;;;1.42;;
14052;SDS011;7101;51.600;7.310;2022-10-26T13:38:27;6.38;;;1.77;;
14052;SDS011;7101;51.600;7.310;2022-10-26T13:41:12;3.60;;;2.00;;
14052;SDS011;7101;51.600;7.310;2022-10-26T13:43:46;4.15;;;1.90;;
14052;SDS011;7101;51.600;7.310;2022-10-26T13:46:19;4.68;;;1.90;;
14052;SDS011;7101;51.600;7.310;2022-10-26T13:48:52;4.03;;;1.95;;
14052;SDS011;7101;51.600;7.310;2022-10-26T13:51:28;6.03;;;1.33;;
14052;SDS011;7101;51.600;7.310;2022-10-26T13:54:10;7.13;;;1.55;;
14052;SDS011;7101;51.600;7.310;2022-10-26T13:56:54;4.55;;;1.15;;
14052;SDS011;7101;51.600;7.310;2022-10-26T13:59:29;2.92;;;1.40;;
14052;SDS011;7101;51.600;7.310;2022-10-26T14:02:05;3.85;;;1.30;;
14052;SDS011;7101;51.600;7.310;2022-10-26T14:04:33;2.40;;;1.27;;
14052;SDS011;7101;51.600;7.310;2022-10-26T14:07:01;3.03;;;1.33;;
14052;SDS011;7101;51.600;7.310;2022-10-26T14:09:28;4.68;;;1.48;;
14052;SDS011;7101;51.600;7.310;2022-10-26T14:11:56;6.50;;;1.50;;
14052;SDS011;7101;51.600;7.310;2022-10-26T14:14:28;4.63;;;1.20;;
14052;SDS011;7101;51.600;7.310;2022-10-26T14:16:57;4.60;;;1.40;;
14052;SDS011;7101;51.600;7.310;2022-10-26T14:19:25;2.83;;;1.25;;
14052;SDS011;7101;51.600;7.310;2022-10-26T14:21:54;4.25;;;1.08;;
14052;SDS011;7101;51.600;7.310;2022-10-26T14:24:31;6.80;;;1.50;;
14052;SDS011;7101;51.600;7.310;2022-10-26T14:27:01;3.65;;;1.42;;
14052;SDS011;7101;51.600;7.310;2022-10-26T14:29:30;3.58;;;1.30;;
14052;SDS011;7101;51.600;7.310;2022-10-26T14:31:58;2.42;;;1.10;;
14052;SDS011;7101;51.600;7.310;2022-10-26T14:34:25;5.80;;;1.35;;
14052;SDS011;7101;51.600;7.310;2022-10-26T14:36:53;5.05;;;1.52;;
14052;SDS011;7101;51.600;7.310;2022-10-26T14:39:25;5.72;;;1.67;;
14052;SDS011;7101;51.600;7.310;2022-10-26T14:41:58;3.50;;;1.40;;
14052;SDS011;7101;51.600;7.310;2022-10-26T14:44:34;3.22;;;1.30;;
14052;SDS011;7101;51.600;7.310;2022-10-26T14:47:10;2.08;;;1.00;;
14052;SDS011;7101;51.600;7.310;2022-10-26T14:49:43;3.92;;;1.40;;
14052;SDS011;7101;51.600;7.310;2022-10-26T14:52:13;3.53;;;1.33;;
14052;SDS011;7101;51.600;7.310;2022-10-26T14:54:58;4.82;;;1.35;;
14052;SDS011;7101;51.600;7.310;2022-10-26T14:57:32;3.22;;;1.38;;
14052;SDS011;7101;51.600;7.310;2022-10-26T15:00:02;3.58;;;1.67;;
14052;SDS011;7101;51.600;7.310;2022-10-26T15:02:38;4.32;;;1.52;;
14052;SDS011;7101;51.600;7.310;2022-10-26T15:05:16;2.80;;;1.38;;
14052;SDS011;7101;51.600;7.310;2022-10-26T15:07:45;3.53;;;1.20;;
14052;SDS011;7101;51.600;7.310;2022-10-26T15:13:17;3.78;;;1.40;;
14052;SDS011;7101;51.600;7.310;2022-10-26T15:15:48;2.90;;;1.00;;
14052;SDS011;7101;51.600;7.310;2022-10-26T15:18:17;3.55;;;1.30;;
14052;SDS011;7101;51.600;7.310;2022-10-26T15:20:46;4.07;;;1.40;;
14052;SDS011;7101;51.600;7.310;2022-10-26T15:23:17;3.88;;;1.48;;
14052;SDS011;7101;51.600;7.310;2022-10-26T15:25:53;5.45;;;1.23;;
14052;SDS011;7101;51.600;7.310;2022-10-26T15:28:23;6.03;;;2.67;;
14052;SDS011;7101;51.600;7.310;2022-10-26T15:30:58;5.72;;;3.03;;
14052;SDS011;7101;51.600;7.310;2022-10-26T15:33:29;4.13;;;2.00;;
14052;SDS011;7101;51.600;7.310;2022-10-26T15:36:09;3.97;;;1.35;;
14052;SDS011;7101;51.600;7.310;2022-10-26T15:38:38;3.30;;;1.33;;
14052;SDS011;7101;51.600;7.310;2022-10-26T15:41:10;3.47;;;1.42;;
14052;SDS011;7101;51.600;7.310;2022-10-26T15:43:41;4.05;;;1.55;;
14052;SDS011;7101;51.600;7.310;2022-10-26T15:46:09;4.20;;;1.70;;
14052;SDS011;7101;51.600;7.310;2022-10-26T15:48:36;2.63;;;1.50;;